Metar Cercanos

 

LEPA - Palma De Mallorc, Spain
Distance from station: ONO 38km
Actualización: 24/05/2018 02:00
Despejado
Despejado
 Viento del NE
Viento: NE 7 km/h
Temperatura: 15°C
Rocío: 13°C
Humedad: 88%
Barómetro: 1017 hPa
Resumen: Despejado
Visibility: greater than 10 km
2018/05/24 00:00 LEPA 240000Z 04004KT CAVOK 15/13 Q1017 NOSIG
LEMH - Mahon/Menorca Is, Spain
Distance from station: ENE 105km
Actualización: 24/05/2018 02:00
Parcialmente nuboso
Parcialmente nuboso
 Viento del ESE
Viento: ESE 6 km/h
Temperatura: 16°C
Rocío: 15°C
Humedad: 94%
Barómetro: 1018 hPa
Clouds: Parcialmente nuboso
Visibility: 6 km
2018/05/24 00:00 LEMH 240000Z 12003KT 6000 NSC 16/15 Q1018
 
LEIB - Ibiza/Es Codola, Spain
Distance from station: OSO 165km
Actualización: 24/05/2018 02:00
Despejado
Despejado
 Viento del ENE
Viento: ENE 9 km/h
Temperatura: 18°C
Rocío: 16°C
Humedad: 88%
Barómetro: 1017 hPa
Resumen: Despejado
Visibility: greater than 10 km
2018/05/24 00:00 LEIB 240000Z 06005KT CAVOK 18/16 Q1017 NOSIG
LEBL - Barcelona Airpor, Spain
Distance from station: NNO 225km
Actualización: 24/05/2018 02:00
Few Clouds
Few Clouds
 Viento del varies
Viento: varies 2 km/h
Temperatura: 18°C
Rocío: 15°C
Humedad: 83%
Barómetro: 1018 hPa
Clouds: Few Clouds
Visibility: 9 km
Cloud details: Few Clouds 457 m
2018/05/24 00:00 LEBL 240000Z VRB01KT 9000 FEW015 18/15 Q1018 NOSIG
 
LEVC - Valencia (civ/Mi, Spain
Distance from station: NO 188km
Actualización: 24/05/2018 02:00
Despejado
Despejado
 Viento del E
Viento: E 6 km/h
Temperatura: 20°C
Rocío: 14°C
Humedad: 69%
Barómetro: 1018 hPa
Resumen: Despejado
Visibility: greater than 10 km
2018/05/24 00:00 LEVC 240000Z 09003KT 060V120 CAVOK 20/14 Q1018 NOSIG
LEGE - Gerona/Costa Bra, Spain
Distance from station: N 276km
Actualización: 24/05/2018 02:00
Mist, Patches of, Niebla, Parcialmente nuboso
Mist, Patches of, Niebla, Parcialmente nuboso
 Viento del varies
Viento: varies 4 km/h
Temperatura: 15°C
Rocío: 15°C
Humedad: 100%
Barómetro: 1017 hPa
Resumen: Mist, Patches of, Niebla
Clouds: Parcialmente nuboso
Visibility: 2 km
Cloud details: Parcialmente nuboso 91 m
2018/05/24 00:00 LEGE 240000Z VRB02KT 2000 BR BCFG SCT003 15/15 Q1017
 
LEAL - Alicante/El Alte, Spain
Distance from station: OSO 344km
Actualización: 24/05/2018 02:00
Few Clouds
Few Clouds
 Viento del NNE
Viento: NNE 6 km/h
Temperatura: 20°C
Rocío: 11°C
Humedad: 56%
Barómetro: 1017 hPa
Clouds: Few Clouds
Visibility: 10 km
Cloud details: Few Clouds 1829 m
2018/05/24 00:00 LEAL 240000Z 02003KT 350V070 9999 FEW060 20/11 Q1017 NOSIG
LEAM - Almeria Airport, Spain
Distance from station: SSO 56km
Actualización: 24/05/2018 02:00
Despejado
Despejado
 Viento del varies
Viento: varies 9 km/h
Temperatura: 24°C
Rocío: 6°C
Humedad: 31%
Barómetro: 1013 hPa
Resumen: Despejado
Visibility: greater than 10 km
2018/05/24 00:00 LEAM 240000Z AUTO VRB05KT CAVOK 24/06 Q1013
 
LEZG - Zaragoza (mil/Ci, Spain
Distance from station: NO 431km
Actualización: 24/05/2018 02:00
Despejado
Despejado
 Viento del varies
Viento: varies 2 km/h
Temperatura: 18°C
Rocío: 16°C
Humedad: 88%
Barómetro: 1017 hPa
Resumen: Despejado
Visibility: greater than 10 km
2018/05/24 00:00 LEZG 240000Z VRB01KT CAVOK 18/16 Q1017
LEMD - Madrid/Barajas, Spain
Distance from station: ONO 234km
Actualización: 24/05/2018 02:00
Despejado
Despejado
 Viento del varies
Viento: varies 4 km/h
Temperatura: 16°C
Rocío: 14°C
Humedad: 88%
Barómetro: 1016 hPa
Resumen: Despejado
Visibility: greater than 10 km
2018/05/24 00:00 LEMD 240000Z VRB02KT CAVOK 16/14 Q1016 NOSIG
 
LEGR - Granada Airport, Spain
Distance from station: OSO 62km
Actualización: 24/05/2018 02:00
Despejado
Despejado
 Viento del calm
Viento: Calma
Temperatura: 16°C
Rocío: 13°C
Humedad: 83%
Barómetro: 1015 hPa
Resumen: Despejado
Visibility: greater than 10 km
2018/05/24 00:00 LEGR 240000Z AUTO 00000KT CAVOK 16/13 Q1015
LEMG - Malaga (civ/Mil), Spain
Distance from station: OSO 227km
Actualización: 24/05/2018 02:00
Despejado
Despejado
 Viento del O
Viento: O 6 km/h
Temperatura: 18°C
Rocío: 9°C
Humedad: 56%
Barómetro: 1014 hPa
Resumen: Despejado
Visibility: greater than 10 km
2018/05/24 00:00 LEMG 240000Z 27003KT CAVOK 18/09 Q1014 NOSIG
 
LEZL - Sevilla (civ/Mil, Spain
Distance from station: S 318km
Actualización: 24/05/2018 02:00
Despejado
Despejado
 Viento del SO
Viento: SO 15 km/h
Temperatura: 19°C
Rocío: 14°C
Humedad: 73%
Barómetro: 1014 hPa
Resumen: Despejado
Visibility: greater than 10 km
2018/05/24 00:00 LEZL 240000Z AUTO 22008KT CAVOK 19/14 Q1014
LEVT - Vitoria, Spain
Distance from station: NO 226km
Actualización: 24/05/2018 02:00
Lluvia débil, Muy nuboso
Lluvia débil, Muy nuboso
 Viento del SO
Viento: SO 6 km/h
Temperatura: 14°C
Rocío: 13°C
Humedad: 94%
Barómetro: 1018 hPa
Resumen: Lluvia débil
Clouds: Muy nuboso
Visibility: 7 km
Cloud details: Few Clouds 244 m
Muy nuboso 914 m
2018/05/24 00:00 LEVT 240000Z 22003KT 170V300 7000 -RA FEW008 BKN030 14/13 Q1018
 
LEBB - Bilbao/Sondica, Spain
Distance from station: NNO 235km
Actualización: 24/05/2018 02:00
Despejado
Despejado
 Viento del calm
Viento: Calma
Temperatura: 18°C
Rocío: 16°C
Humedad: 88%
Barómetro: 1017 hPa
Resumen: Despejado
Visibility: greater than 10 km
2018/05/24 00:00 LEBB 240000Z AUTO 00000KT CAVOK 18/16 Q1017
LESO - San Sebastian/Fu, Spain
Distance from station: N 231km
Actualización: 24/05/2018 02:00
Despejado
Despejado
 Viento del SO
Viento: SO 6 km/h
Temperatura: 17°C
Rocío: 14°C
Humedad: 83%
Barómetro: 1017 hPa
Resumen: Despejado
Visibility: greater than 10 km
2018/05/24 00:00 LESO 240000Z AUTO 23003KT 200V260 CAVOK 17/14 Q1017
 
LEVD - Valladolid(Mil/C, Spain
Distance from station: ONO 239km
Actualización: 23/05/2018 21:30
NOT Current
Nearby thunderstorm, Lluvia débil, Parcialmente nuboso
Nearby thunderstorm, Lluvia débil, Parcialmente nuboso
 Viento del NO
Viento: NO 7 km/h
Temperatura: 15°C
Rocío: 12°C
Humedad: 82%
Barómetro: 1017 hPa
Resumen: Nearby thunderstorm, Lluvia débil
Clouds: Parcialmente nuboso
Visibility: 10 km
Cloud details: Few Clouds 762 m
Parcialmente nuboso 1219 m
2018/05/23 19:30 LEVD 231930Z 31004KT 240V350 9999 VCTS -RA FEW025CB SCT040 15/12 Q1017
LESA - Salamanca (civ/M, Spain
Distance from station: ONO 349km
Actualización: 23/05/2018 20:00
NOT Current
Few Clouds
Few Clouds
 Viento del varies
Viento: varies 4 km/h
Temperatura: 21°C
Rocío: 11°C
Humedad: 53%
Barómetro: 1015 hPa
Clouds: Few Clouds
Visibility: 10 km
Cloud details: Few Clouds 914 m
2018/05/23 18:00 LESA 231800Z VRB02KT 9999 FEW030 21/11 Q1015
 
LEXJ - Santander/Paraya, Spain
Distance from station: NNO 247km
Actualización: 24/05/2018 02:00
Mist, Parcialmente nuboso
Mist, Parcialmente nuboso
 Viento del ESE
Viento: ESE 7 km/h
Temperatura: 17°C
Rocío: 17°C
Humedad: 100%
Barómetro: 1016 hPa
Resumen: Mist
Clouds: Parcialmente nuboso
Visibility: 4 km
2018/05/24 00:00 LEXJ 240000Z AUTO 12004KT 4000 BR NSC 17/17 Q1016
LEAS - Asturias/Aviles, Spain
Distance from station: NO 214km
Actualización: 24/05/2018 02:00
Mist, Parcialmente nuboso
Mist, Parcialmente nuboso
 Viento del varies
Viento: varies 4 km/h
Temperatura: 16°C
Rocío: 15°C
Humedad: 94%
Barómetro: 1017 hPa
Resumen: Mist
Clouds: Parcialmente nuboso
Visibility: 5 km
Cloud details: Parcialmente nuboso 457 m
2018/05/24 00:00 LEAS 240000Z VRB02KT 5000 BR SCT015 16/15 Q1017 BECMG 3000 BR
 
LECO - La Coruna/Alvedr, Spain
Distance from station: ONO 222km
Actualización: 24/05/2018 02:00

 Viento del calm
Viento: Calma
Temperatura: 15°C
Rocío: 14°C
Humedad: 94%
Barómetro: 1016 hPa
Visibility: 10 km
2018/05/24 00:00 LECO 240000Z AUTO 00000KT 9999 ////// 15/14 Q1016
LEVX - Vigo/Peinador, Spain
Distance from station: O 214km
Actualización: 24/05/2018 02:00
Despejado
Despejado
 Viento del calm
Viento: Calma
Temperatura: 15°C
Rocío: 11°C
Humedad: 77%
Barómetro: 1016 hPa
Resumen: Despejado
Visibility: greater than 10 km
2018/05/24 00:00 LEVX 240000Z 00000KT CAVOK 15/11 Q1016 NOSIG